Mount Vernon, Oregon
Current Conditions -  °F | °C
As of 4:35 AM on Monday 20 Oct 2014 (Local Time) from KGCD Reporting Station
Clear Clear  
Wind Chill: 55°   Ceiling: Unl
Heat Index: 55°   Visibility: 10mi
Dew Point: 30°   Wind: 8mph
Humidity: 39%   Direction: 210°SSW
Pressure: 29.85"   Gusts: NA
Location:  44.42°N, 119.11°W
Report Text: KGCD 201135Z AUTO 21007KT 10SM CLR 13/M01 A2985 RMK AO2 T01251010
Loading
Personal Weather Stations






























Interactive Weather Map
Tropical Storm Tracking
New forecast layout! Learn more

10-Day Weather Forecast

Advertisements
Track Severe Weather on mobile